sensor_id;sensor_type;location;lat;lon;timestamp;P1;durP1;ratioP1;P2;durP2;ratioP2
37231;SDS011;23125;48.156;15.954;2023-06-10T00:02:08;6.65;;;2.90;;
37231;SDS011;23125;48.156;15.954;2023-06-10T00:04:34;3.42;;;2.85;;
37231;SDS011;23125;48.156;15.954;2023-06-10T00:07:02;5.40;;;2.60;;
37231;SDS011;23125;48.156;15.954;2023-06-10T00:09:36;7.20;;;3.10;;
37231;SDS011;23125;48.156;15.954;2023-06-10T00:12:06;4.38;;;2.70;;
37231;SDS011;23125;48.156;15.954;2023-06-10T00:14:38;5.00;;;2.78;;
37231;SDS011;23125;48.156;15.954;2023-06-10T00:17:06;4.28;;;2.72;;
37231;SDS011;23125;48.156;15.954;2023-06-10T00:19:34;3.78;;;3.08;;
37231;SDS011;23125;48.156;15.954;2023-06-10T00:22:00;5.45;;;2.72;;
37231;SDS011;23125;48.156;15.954;2023-06-10T00:24:26;3.53;;;2.63;;
37231;SDS011;23125;48.156;15.954;2023-06-10T00:26:52;3.63;;;2.70;;
37231;SDS011;23125;48.156;15.954;2023-06-10T00:29:18;4.80;;;2.80;;
37231;SDS011;23125;48.156;15.954;2023-06-10T00:31:45;3.63;;;2.60;;
37231;SDS011;23125;48.156;15.954;2023-06-10T00:34:12;4.00;;;2.80;;
37231;SDS011;23125;48.156;15.954;2023-06-10T00:36:38;4.32;;;2.47;;
37231;SDS011;23125;48.156;15.954;2023-06-10T00:39:03;5.15;;;2.30;;
37231;SDS011;23125;48.156;15.954;2023-06-10T00:41:30;4.78;;;2.70;;
37231;SDS011;23125;48.156;15.954;2023-06-10T00:43:56;3.42;;;2.83;;
37231;SDS011;23125;48.156;15.954;2023-06-10T00:46:22;4.95;;;2.60;;
37231;SDS011;23125;48.156;15.954;2023-06-10T00:48:50;4.33;;;2.80;;
37231;SDS011;23125;48.156;15.954;2023-06-10T00:51:17;4.57;;;3.05;;
37231;SDS011;23125;48.156;15.954;2023-06-10T00:53:44;4.30;;;3.08;;
37231;SDS011;23125;48.156;15.954;2023-06-10T00:56:11;3.15;;;2.58;;
37231;SDS011;23125;48.156;15.954;2023-06-10T00:58:38;5.90;;;3.28;;
37231;SDS011;23125;48.156;15.954;2023-06-10T01:01:04;3.08;;;2.67;;
37231;SDS011;23125;48.156;15.954;2023-06-10T01:03:30;4.15;;;2.58;;
37231;SDS011;23125;48.156;15.954;2023-06-10T01:06:01;5.70;;;2.95;;
37231;SDS011;23125;48.156;15.954;2023-06-10T01:11:24;3.95;;;2.50;;
37231;SDS011;23125;48.156;15.954;2023-06-10T01:13:55;3.55;;;2.60;;
37231;SDS011;23125;48.156;15.954;2023-06-10T01:16:23;3.03;;;2.55;;
37231;SDS011;23125;48.156;15.954;2023-06-10T01:18:50;3.40;;;2.58;;
37231;SDS011;23125;48.156;15.954;2023-06-10T01:21:21;2.97;;;2.53;;
37231;SDS011;23125;48.156;15.954;2023-06-10T01:23:50;4.22;;;2.85;;
37231;SDS011;23125;48.156;15.954;2023-06-10T01:26:17;3.85;;;2.90;;
37231;SDS011;23125;48.156;15.954;2023-06-10T01:28:49;3.70;;;2.78;;
37231;SDS011;23125;48.156;15.954;2023-06-10T01:34:07;3.60;;;2.85;;
37231;SDS011;23125;48.156;15.954;2023-06-10T01:36:36;4.75;;;3.10;;
37231;SDS011;23125;48.156;15.954;2023-06-10T01:39:03;6.40;;;2.67;;
37231;SDS011;23125;48.156;15.954;2023-06-10T01:41:31;3.88;;;2.38;;
37231;SDS011;23125;48.156;15.954;2023-06-10T01:43:58;3.35;;;2.80;;
37231;SDS011;23125;48.156;15.954;2023-06-10T01:46:24;6.50;;;2.85;;
37231;SDS011;23125;48.156;15.954;2023-06-10T01:48:50;4.05;;;2.85;;
37231;SDS011;23125;48.156;15.954;2023-06-10T01:51:15;4.72;;;2.60;;
37231;SDS011;23125;48.156;15.954;2023-06-10T01:53:41;4.10;;;2.78;;
37231;SDS011;23125;48.156;15.954;2023-06-10T01:56:07;4.53;;;2.42;;
37231;SDS011;23125;48.156;15.954;2023-06-10T01:58:33;3.45;;;2.80;;
37231;SDS011;23125;48.156;15.954;2023-06-10T02:00:59;3.58;;;2.90;;
37231;SDS011;23125;48.156;15.954;2023-06-10T02:03:25;5.10;;;2.92;;
37231;SDS011;23125;48.156;15.954;2023-06-10T02:05:51;4.35;;;2.55;;
37231;SDS011;23125;48.156;15.954;2023-06-10T02:08:17;5.03;;;2.35;;
37231;SDS011;23125;48.156;15.954;2023-06-10T02:10:42;3.83;;;2.63;;
37231;SDS011;23125;48.156;15.954;2023-06-10T02:13:09;3.75;;;2.80;;
37231;SDS011;23125;48.156;15.954;2023-06-10T02:15:35;4.40;;;2.40;;
37231;SDS011;23125;48.156;15.954;2023-06-10T02:18:00;4.20;;;2.38;;
37231;SDS011;23125;48.156;15.954;2023-06-10T02:20:27;3.78;;;2.38;;
37231;SDS011;23125;48.156;15.954;2023-06-10T02:22:53;3.92;;;2.63;;
37231;SDS011;23125;48.156;15.954;2023-06-10T02:25:19;3.10;;;2.53;;
37231;SDS011;23125;48.156;15.954;2023-06-10T02:27:45;3.80;;;2.63;;
37231;SDS011;23125;48.156;15.954;2023-06-10T02:30:11;3.17;;;2.80;;
37231;SDS011;23125;48.156;15.954;2023-06-10T02:32:38;3.47;;;2.60;;
37231;SDS011;23125;48.156;15.954;2023-06-10T02:35:04;2.97;;;2.47;;
37231;SDS011;23125;48.156;15.954;2023-06-10T02:37:30;6.40;;;2.80;;
37231;SDS011;23125;48.156;15.954;2023-06-10T02:39:56;4.38;;;2.50;;
37231;SDS011;23125;48.156;15.954;2023-06-10T02:42:22;5.47;;;3.08;;
37231;SDS011;23125;48.156;15.954;2023-06-10T02:44:48;5.28;;;2.85;;
37231;SDS011;23125;48.156;15.954;2023-06-10T02:47:13;2.60;;;2.30;;
37231;SDS011;23125;48.156;15.954;2023-06-10T02:49:39;2.65;;;2.35;;
37231;SDS011;23125;48.156;15.954;2023-06-10T02:52:05;3.45;;;2.63;;
37231;SDS011;23125;48.156;15.954;2023-06-10T02:54:33;3.10;;;2.55;;
37231;SDS011;23125;48.156;15.954;2023-06-10T02:56:58;6.32;;;3.05;;
37231;SDS011;23125;48.156;15.954;2023-06-10T02:59:26;3.35;;;2.38;;
37231;SDS011;23125;48.156;15.954;2023-06-10T03:01:53;3.05;;;2.33;;
37231;SDS011;23125;48.156;15.954;2023-06-10T03:04:19;3.20;;;2.70;;
37231;SDS011;23125;48.156;15.954;2023-06-10T03:06:45;7.35;;;3.00;;
37231;SDS011;23125;48.156;15.954;2023-06-10T03:09:12;3.42;;;2.42;;
37231;SDS011;23125;48.156;15.954;2023-06-10T03:11:38;2.42;;;2.17;;
37231;SDS011;23125;48.156;15.954;2023-06-10T03:14:04;3.33;;;2.85;;
37231;SDS011;23125;48.156;15.954;2023-06-10T03:16:30;4.20;;;3.22;;
37231;SDS011;23125;48.156;15.954;2023-06-10T03:18:56;4.68;;;3.00;;
37231;SDS011;23125;48.156;15.954;2023-06-10T03:21:22;3.00;;;2.50;;
37231;SDS011;23125;48.156;15.954;2023-06-10T03:23:48;4.25;;;3.13;;
37231;SDS011;23125;48.156;15.954;2023-06-10T03:26:14;5.47;;;2.47;;
37231;SDS011;23125;48.156;15.954;2023-06-10T03:28:41;4.30;;;3.05;;
37231;SDS011;23125;48.156;15.954;2023-06-10T03:31:06;3.63;;;2.45;;
37231;SDS011;23125;48.156;15.954;2023-06-10T03:33:32;4.22;;;3.28;;
37231;SDS011;23125;48.156;15.954;2023-06-10T03:35:59;6.05;;;2.83;;
37231;SDS011;23125;48.156;15.954;2023-06-10T03:38:24;5.72;;;2.65;;
37231;SDS011;23125;48.156;15.954;2023-06-10T03:40:50;3.08;;;2.55;;
37231;SDS011;23125;48.156;15.954;2023-06-10T03:43:16;4.10;;;2.90;;
37231;SDS011;23125;48.156;15.954;2023-06-10T03:45:42;3.40;;;2.85;;
37231;SDS011;23125;48.156;15.954;2023-06-10T03:48:08;5.13;;;2.83;;
37231;SDS011;23125;48.156;15.954;2023-06-10T03:50:34;5.90;;;3.08;;
37231;SDS011;23125;48.156;15.954;2023-06-10T03:53:01;4.07;;;3.08;;
37231;SDS011;23125;48.156;15.954;2023-06-10T03:55:27;3.42;;;2.90;;
37231;SDS011;23125;48.156;15.954;2023-06-10T03:57:53;4.38;;;2.97;;
37231;SDS011;23125;48.156;15.954;2023-06-10T04:00:19;3.30;;;2.90;;
37231;SDS011;23125;48.156;15.954;2023-06-10T04:02:47;4.40;;;3.10;;
37231;SDS011;23125;48.156;15.954;2023-06-10T04:05:15;4.55;;;3.10;;
37231;SDS011;23125;48.156;15.954;2023-06-10T04:07:42;4.25;;;3.35;;
37231;SDS011;23125;48.156;15.954;2023-06-10T04:10:09;4.18;;;3.03;;
37231;SDS011;23125;48.156;15.954;2023-06-10T04:12:36;5.07;;;3.50;;
37231;SDS011;23125;48.156;15.954;2023-06-10T04:15:04;5.85;;;3.25;;
37231;SDS011;23125;48.156;15.954;2023-06-10T04:17:30;4.07;;;3.10;;
37231;SDS011;23125;48.156;15.954;2023-06-10T04:19:57;6.22;;;3.22;;
37231;SDS011;23125;48.156;15.954;2023-06-10T04:22:26;6.53;;;3.28;;
37231;SDS011;23125;48.156;15.954;2023-06-10T04:24:52;4.15;;;2.92;;
37231;SDS011;23125;48.156;15.954;2023-06-10T04:27:18;4.85;;;3.20;;
37231;SDS011;23125;48.156;15.954;2023-06-10T04:29:44;3.55;;;3.22;;
37231;SDS011;23125;48.156;15.954;2023-06-10T04:32:10;3.60;;;2.78;;
37231;SDS011;23125;48.156;15.954;2023-06-10T04:34:36;5.03;;;3.50;;
37231;SDS011;23125;48.156;15.954;2023-06-10T04:37:05;5.30;;;3.75;;
37231;SDS011;23125;48.156;15.954;2023-06-10T04:39:31;5.03;;;3.78;;
37231;SDS011;23125;48.156;15.954;2023-06-10T04:41:58;6.38;;;4.00;;
37231;SDS011;23125;48.156;15.954;2023-06-10T04:44:25;6.03;;;3.72;;
37231;SDS011;23125;48.156;15.954;2023-06-10T04:46:51;3.70;;;3.17;;
37231;SDS011;23125;48.156;15.954;2023-06-10T04:49:17;4.30;;;3.45;;
37231;SDS011;23125;48.156;15.954;2023-06-10T04:51:43;6.38;;;3.78;;
37231;SDS011;23125;48.156;15.954;2023-06-10T04:54:09;5.32;;;3.40;;
37231;SDS011;23125;48.156;15.954;2023-06-10T04:56:34;6.18;;;4.03;;
37231;SDS011;23125;48.156;15.954;2023-06-10T04:59:01;5.97;;;4.28;;
37231;SDS011;23125;48.156;15.954;2023-06-10T05:01:27;5.20;;;4.05;;
37231;SDS011;23125;48.156;15.954;2023-06-10T05:03:53;5.82;;;4.38;;
37231;SDS011;23125;48.156;15.954;2023-06-10T05:06:19;5.88;;;4.15;;
37231;SDS011;23125;48.156;15.954;2023-06-10T05:08:45;4.68;;;4.15;;
37231;SDS011;23125;48.156;15.954;2023-06-10T05:11:11;4.68;;;3.92;;
37231;SDS011;23125;48.156;15.954;2023-06-10T05:13:37;5.68;;;3.95;;
37231;SDS011;23125;48.156;15.954;2023-06-10T05:16:03;5.40;;;4.10;;
37231;SDS011;23125;48.156;15.954;2023-06-10T05:18:29;5.30;;;4.55;;
37231;SDS011;23125;48.156;15.954;2023-06-10T05:20:54;5.13;;;4.43;;
37231;SDS011;23125;48.156;15.954;2023-06-10T05:23:20;5.90;;;4.40;;
37231;SDS011;23125;48.156;15.954;2023-06-10T05:25:46;5.90;;;4.72;;
37231;SDS011;23125;48.156;15.954;2023-06-10T05:28:13;6.53;;;5.03;;
37231;SDS011;23125;48.156;15.954;2023-06-10T05:30:39;7.18;;;5.50;;
37231;SDS011;23125;48.156;15.954;2023-06-10T05:33:05;7.03;;;5.25;;
37231;SDS011;23125;48.156;15.954;2023-06-10T05:35:31;7.97;;;5.30;;
37231;SDS011;23125;48.156;15.954;2023-06-10T05:37:56;8.45;;;5.85;;
37231;SDS011;23125;48.156;15.954;2023-06-10T05:40:22;6.55;;;5.85;;
37231;SDS011;23125;48.156;15.954;2023-06-10T05:42:48;8.43;;;5.65;;
37231;SDS011;23125;48.156;15.954;2023-06-10T05:45:14;6.95;;;5.80;;
37231;SDS011;23125;48.156;15.954;2023-06-10T05:47:41;8.98;;;6.78;;
37231;SDS011;23125;48.156;15.954;2023-06-10T05:50:07;7.57;;;6.45;;
37231;SDS011;23125;48.156;15.954;2023-06-10T05:52:34;8.13;;;6.13;;
37231;SDS011;23125;48.156;15.954;2023-06-10T05:55:01;8.55;;;6.90;;
37231;SDS011;23125;48.156;15.954;2023-06-10T05:57:28;10.70;;;7.97;;
37231;SDS011;23125;48.156;15.954;2023-06-10T05:59:54;11.05;;;7.50;;
37231;SDS011;23125;48.156;15.954;2023-06-10T06:02:20;10.40;;;8.02;;
37231;SDS011;23125;48.156;15.954;2023-06-10T06:04:46;9.40;;;8.23;;
37231;SDS011;23125;48.156;15.954;2023-06-10T06:07:12;8.80;;;7.70;;
37231;SDS011;23125;48.156;15.954;2023-06-10T06:09:38;9.02;;;7.93;;
37231;SDS011;23125;48.156;15.954;2023-06-10T06:12:04;11.27;;;8.70;;
37231;SDS011;23125;48.156;15.954;2023-06-10T06:14:32;9.98;;;8.27;;
37231;SDS011;23125;48.156;15.954;2023-06-10T06:16:58;13.35;;;9.63;;
37231;SDS011;23125;48.156;15.954;2023-06-10T06:19:24;11.93;;;9.80;;
37231;SDS011;23125;48.156;15.954;2023-06-10T06:21:50;13.30;;;10.25;;
37231;SDS011;23125;48.156;15.954;2023-06-10T06:24:15;13.50;;;10.90;;
37231;SDS011;23125;48.156;15.954;2023-06-10T06:26:41;14.60;;;10.88;;
37231;SDS011;23125;48.156;15.954;2023-06-10T06:29:07;11.52;;;9.82;;
37231;SDS011;23125;48.156;15.954;2023-06-10T06:31:33;15.27;;;10.38;;
37231;SDS011;23125;48.156;15.954;2023-06-10T06:33:59;12.52;;;10.43;;
37231;SDS011;23125;48.156;15.954;2023-06-10T06:36:26;14.48;;;10.73;;
37231;SDS011;23125;48.156;15.954;2023-06-10T06:38:52;12.93;;;10.23;;
37231;SDS011;23125;48.156;15.954;2023-06-10T06:41:18;13.45;;;10.88;;
37231;SDS011;23125;48.156;15.954;2023-06-10T06:43:43;14.63;;;10.73;;
37231;SDS011;23125;48.156;15.954;2023-06-10T06:46:09;10.95;;;9.85;;
37231;SDS011;23125;48.156;15.954;2023-06-10T06:48:35;20.50;;;12.27;;
37231;SDS011;23125;48.156;15.954;2023-06-10T06:51:01;15.90;;;11.40;;
37231;SDS011;23125;48.156;15.954;2023-06-10T06:53:27;17.88;;;12.35;;
37231;SDS011;23125;48.156;15.954;2023-06-10T06:55:52;18.98;;;12.32;;
37231;SDS011;23125;48.156;15.954;2023-06-10T06:58:18;16.35;;;13.13;;
37231;SDS011;23125;48.156;15.954;2023-06-10T07:00:44;16.48;;;12.35;;
37231;SDS011;23125;48.156;15.954;2023-06-10T07:03:10;16.42;;;12.60;;
37231;SDS011;23125;48.156;15.954;2023-06-10T07:05:36;16.92;;;12.52;;
37231;SDS011;23125;48.156;15.954;2023-06-10T07:08:03;16.75;;;11.82;;
37231;SDS011;23125;48.156;15.954;2023-06-10T07:10:29;17.63;;;12.95;;
37231;SDS011;23125;48.156;15.954;2023-06-10T07:12:55;16.20;;;12.20;;
37231;SDS011;23125;48.156;15.954;2023-06-10T07:15:21;17.15;;;13.07;;
37231;SDS011;23125;48.156;15.954;2023-06-10T07:17:47;18.13;;;13.15;;
37231;SDS011;23125;48.156;15.954;2023-06-10T07:20:13;13.70;;;11.38;;
37231;SDS011;23125;48.156;15.954;2023-06-10T07:22:40;13.32;;;10.80;;
37231;SDS011;23125;48.156;15.954;2023-06-10T07:25:07;15.95;;;12.63;;
37231;SDS011;23125;48.156;15.954;2023-06-10T07:27:33;16.27;;;11.35;;
37231;SDS011;23125;48.156;15.954;2023-06-10T07:30:02;15.68;;;12.48;;
37231;SDS011;23125;48.156;15.954;2023-06-10T07:32:30;16.15;;;12.15;;
37231;SDS011;23125;48.156;15.954;2023-06-10T07:34:55;18.88;;;12.68;;
37231;SDS011;23125;48.156;15.954;2023-06-10T07:37:21;13.95;;;11.77;;
37231;SDS011;23125;48.156;15.954;2023-06-10T07:39:47;15.45;;;12.73;;
37231;SDS011;23125;48.156;15.954;2023-06-10T07:42:13;19.48;;;13.38;;
37231;SDS011;23125;48.156;15.954;2023-06-10T07:44:39;18.60;;;12.70;;
37231;SDS011;23125;48.156;15.954;2023-06-10T07:47:05;16.42;;;12.52;;
37231;SDS011;23125;48.156;15.954;2023-06-10T07:49:31;16.48;;;12.48;;
37231;SDS011;23125;48.156;15.954;2023-06-10T07:51:57;16.73;;;12.98;;
37231;SDS011;23125;48.156;15.954;2023-06-10T07:54:22;18.33;;;13.43;;
37231;SDS011;23125;48.156;15.954;2023-06-10T07:56:48;17.10;;;13.55;;
37231;SDS011;23125;48.156;15.954;2023-06-10T07:59:14;20.10;;;13.48;;
37231;SDS011;23125;48.156;15.954;2023-06-10T08:01:41;21.80;;;14.73;;
37231;SDS011;23125;48.156;15.954;2023-06-10T08:04:08;19.38;;;15.27;;
37231;SDS011;23125;48.156;15.954;2023-06-10T08:06:34;24.52;;;16.02;;
37231;SDS011;23125;48.156;15.954;2023-06-10T08:08:59;20.77;;;15.70;;
37231;SDS011;23125;48.156;15.954;2023-06-10T08:11:25;21.88;;;15.55;;
37231;SDS011;23125;48.156;15.954;2023-06-10T08:13:53;22.40;;;15.43;;
37231;SDS011;23125;48.156;15.954;2023-06-10T08:16:19;20.02;;;14.95;;
37231;SDS011;23125;48.156;15.954;2023-06-10T08:18:45;22.23;;;15.65;;
37231;SDS011;23125;48.156;15.954;2023-06-10T08:21:11;18.75;;;14.75;;
37231;SDS011;23125;48.156;15.954;2023-06-10T08:23:37;22.70;;;14.50;;
37231;SDS011;23125;48.156;15.954;2023-06-10T08:26:04;17.67;;;13.40;;
37231;SDS011;23125;48.156;15.954;2023-06-10T08:28:30;23.25;;;14.85;;
37231;SDS011;23125;48.156;15.954;2023-06-10T08:30:55;20.00;;;14.52;;
37231;SDS011;23125;48.156;15.954;2023-06-10T08:33:21;21.77;;;15.00;;
37231;SDS011;23125;48.156;15.954;2023-06-10T08:35:48;18.67;;;14.13;;
37231;SDS011;23125;48.156;15.954;2023-06-10T08:38:13;19.20;;;13.52;;
37231;SDS011;23125;48.156;15.954;2023-06-10T08:40:39;20.63;;;15.10;;
37231;SDS011;23125;48.156;15.954;2023-06-10T08:43:06;20.77;;;14.15;;
37231;SDS011;23125;48.156;15.954;2023-06-10T08:45:34;19.67;;;13.32;;
37231;SDS011;23125;48.156;15.954;2023-06-10T08:48:04;16.67;;;12.93;;
37231;SDS011;23125;48.156;15.954;2023-06-10T08:50:34;16.77;;;12.02;;
37231;SDS011;23125;48.156;15.954;2023-06-10T08:53:02;17.33;;;13.68;;
37231;SDS011;23125;48.156;15.954;2023-06-10T08:55:32;19.90;;;14.20;;
37231;SDS011;23125;48.156;15.954;2023-06-10T08:58:00;17.10;;;13.35;;
37231;SDS011;23125;48.156;15.954;2023-06-10T09:00:28;18.55;;;13.88;;
37231;SDS011;23125;48.156;15.954;2023-06-10T09:02:55;16.75;;;13.45;;
37231;SDS011;23125;48.156;15.954;2023-06-10T09:05:23;15.55;;;12.90;;
37231;SDS011;23125;48.156;15.954;2023-06-10T09:07:50;15.65;;;12.95;;
37231;SDS011;23125;48.156;15.954;2023-06-10T09:10:17;17.50;;;12.82;;
37231;SDS011;23125;48.156;15.954;2023-06-10T09:12:43;16.95;;;13.45;;
37231;SDS011;23125;48.156;15.954;2023-06-10T09:15:09;15.63;;;13.05;;
37231;SDS011;23125;48.156;15.954;2023-06-10T09:17:37;19.60;;;14.02;;
37231;SDS011;23125;48.156;15.954;2023-06-10T09:20:06;16.85;;;12.55;;
37231;SDS011;23125;48.156;15.954;2023-06-10T09:22:33;16.25;;;12.35;;
37231;SDS011;23125;48.156;15.954;2023-06-10T09:25:05;14.85;;;12.45;;
37231;SDS011;23125;48.156;15.954;2023-06-10T09:27:51;15.85;;;12.63;;
37231;SDS011;23125;48.156;15.954;2023-06-10T09:30:31;18.08;;;12.68;;
37231;SDS011;23125;48.156;15.954;2023-06-10T09:32:59;15.27;;;13.02;;
37231;SDS011;23125;48.156;15.954;2023-06-10T09:35:35;14.70;;;12.57;;
37231;SDS011;23125;48.156;15.954;2023-06-10T09:38:00;16.08;;;12.88;;
37231;SDS011;23125;48.156;15.954;2023-06-10T09:40:27;15.63;;;12.77;;
37231;SDS011;23125;48.156;15.954;2023-06-10T09:42:57;15.68;;;12.05;;
37231;SDS011;23125;48.156;15.954;2023-06-10T09:45:31;16.35;;;12.95;;
37231;SDS011;23125;48.156;15.954;2023-06-10T09:47:58;16.35;;;13.75;;
37231;SDS011;23125;48.156;15.954;2023-06-10T09:50:24;14.93;;;12.43;;
37231;SDS011;23125;48.156;15.954;2023-06-10T09:52:51;14.68;;;13.13;;
37231;SDS011;23125;48.156;15.954;2023-06-10T09:55:17;14.95;;;11.88;;
37231;SDS011;23125;48.156;15.954;2023-06-10T09:57:43;12.73;;;11.38;;
37231;SDS011;23125;48.156;15.954;2023-06-10T10:00:13;13.38;;;10.82;;
37231;SDS011;23125;48.156;15.954;2023-06-10T10:02:47;12.75;;;11.40;;
37231;SDS011;23125;48.156;15.954;2023-06-10T10:05:14;13.68;;;11.40;;
37231;SDS011;23125;48.156;15.954;2023-06-10T10:07:41;12.95;;;11.00;;
37231;SDS011;23125;48.156;15.954;2023-06-10T10:10:08;13.02;;;10.75;;
37231;SDS011;23125;48.156;15.954;2023-06-10T10:12:35;16.00;;;11.70;;
37231;SDS011;23125;48.156;15.954;2023-06-10T10:15:03;12.32;;;10.98;;
37231;SDS011;23125;48.156;15.954;2023-06-10T10:17:40;14.45;;;11.32;;
37231;SDS011;23125;48.156;15.954;2023-06-10T10:20:11;13.25;;;10.82;;
37231;SDS011;23125;48.156;15.954;2023-06-10T10:22:40;14.80;;;11.75;;
37231;SDS011;23125;48.156;15.954;2023-06-10T10:25:11;14.13;;;11.60;;
37231;SDS011;23125;48.156;15.954;2023-06-10T10:27:48;13.48;;;11.25;;
37231;SDS011;23125;48.156;15.954;2023-06-10T10:30:17;14.38;;;11.90;;
37231;SDS011;23125;48.156;15.954;2023-06-10T10:35:23;12.73;;;11.38;;
37231;SDS011;23125;48.156;15.954;2023-06-10T10:37:52;15.80;;;12.15;;
37231;SDS011;23125;48.156;15.954;2023-06-10T10:40:23;12.53;;;11.23;;
37231;SDS011;23125;48.156;15.954;2023-06-10T10:42:51;13.60;;;11.48;;
37231;SDS011;23125;48.156;15.954;2023-06-10T10:45:18;16.10;;;11.90;;
37231;SDS011;23125;48.156;15.954;2023-06-10T10:47:45;14.85;;;11.90;;
37231;SDS011;23125;48.156;15.954;2023-06-10T10:50:15;13.10;;;10.90;;
37231;SDS011;23125;48.156;15.954;2023-06-10T10:55:17;11.55;;;10.35;;
37231;SDS011;23125;48.156;15.954;2023-06-10T10:57:43;16.83;;;10.88;;
37231;SDS011;23125;48.156;15.954;2023-06-10T11:00:10;12.93;;;10.70;;
37231;SDS011;23125;48.156;15.954;2023-06-10T11:02:37;11.10;;;10.00;;
37231;SDS011;23125;48.156;15.954;2023-06-10T11:05:14;10.05;;;8.77;;
37231;SDS011;23125;48.156;15.954;2023-06-10T11:07:51;12.70;;;10.00;;
37231;SDS011;23125;48.156;15.954;2023-06-10T11:12:54;11.07;;;9.90;;
37231;SDS011;23125;48.156;15.954;2023-06-10T11:15:23;12.30;;;11.00;;
37231;SDS011;23125;48.156;15.954;2023-06-10T11:23:08;11.80;;;8.75;;
37231;SDS011;23125;48.156;15.954;2023-06-10T11:25:43;11.45;;;10.00;;
37231;SDS011;23125;48.156;15.954;2023-06-10T11:28:27;11.88;;;9.50;;
37231;SDS011;23125;48.156;15.954;2023-06-10T11:30:59;12.23;;;9.48;;
37231;SDS011;23125;48.156;15.954;2023-06-10T11:33:25;10.13;;;8.68;;
37231;SDS011;23125;48.156;15.954;2023-06-10T11:35:51;8.75;;;7.60;;
37231;SDS011;23125;48.156;15.954;2023-06-10T11:38:17;8.88;;;7.55;;
37231;SDS011;23125;48.156;15.954;2023-06-10T11:40:49;9.77;;;8.75;;
37231;SDS011;23125;48.156;15.954;2023-06-10T11:43:17;10.35;;;8.55;;
37231;SDS011;23125;48.156;15.954;2023-06-10T11:45:43;9.80;;;8.40;;
37231;SDS011;23125;48.156;15.954;2023-06-10T11:48:10;9.90;;;7.95;;
37231;SDS011;23125;48.156;15.954;2023-06-10T11:50:37;8.25;;;7.45;;
37231;SDS011;23125;48.156;15.954;2023-06-10T11:53:04;8.88;;;7.97;;
37231;SDS011;23125;48.156;15.954;2023-06-10T11:55:40;8.05;;;6.40;;
37231;SDS011;23125;48.156;15.954;2023-06-10T11:58:21;8.57;;;7.72;;
37231;SDS011;23125;48.156;15.954;2023-06-10T12:00:48;10.50;;;7.70;;
37231;SDS011;23125;48.156;15.954;2023-06-10T12:03:19;8.93;;;8.02;;
37231;SDS011;23125;48.156;15.954;2023-06-10T12:05:57;9.63;;;8.60;;
37231;SDS011;23125;48.156;15.954;2023-06-10T12:08:24;9.23;;;8.32;;
37231;SDS011;23125;48.156;15.954;2023-06-10T12:10:51;9.50;;;8.52;;
37231;SDS011;23125;48.156;15.954;2023-06-10T12:13:17;10.63;;;8.05;;
37231;SDS011;23125;48.156;15.954;2023-06-10T12:15:43;11.02;;;8.05;;
37231;SDS011;23125;48.156;15.954;2023-06-10T12:18:16;8.98;;;8.07;;
37231;SDS011;23125;48.156;15.954;2023-06-10T12:20:49;9.90;;;8.90;;
37231;SDS011;23125;48.156;15.954;2023-06-10T12:23:16;8.45;;;7.57;;
37231;SDS011;23125;48.156;15.954;2023-06-10T12:25:50;9.93;;;8.25;;
37231;SDS011;23125;48.156;15.954;2023-06-10T12:28:18;7.80;;;7.00;;
37231;SDS011;23125;48.156;15.954;2023-06-10T12:30:46;9.23;;;8.18;;
37231;SDS011;23125;48.156;15.954;2023-06-10T12:33:18;9.05;;;8.15;;
37231;SDS011;23125;48.156;15.954;2023-06-10T12:35:48;11.38;;;8.55;;
37231;SDS011;23125;48.156;15.954;2023-06-10T12:38:22;8.40;;;7.38;;
37231;SDS011;23125;48.156;15.954;2023-06-10T12:40:49;8.55;;;7.65;;
37231;SDS011;23125;48.156;15.954;2023-06-10T12:43:22;10.23;;;7.35;;
37231;SDS011;23125;48.156;15.954;2023-06-10T12:45:48;8.43;;;7.63;;
37231;SDS011;23125;48.156;15.954;2023-06-10T12:48:19;11.07;;;8.07;;
37231;SDS011;23125;48.156;15.954;2023-06-10T12:50:56;9.50;;;8.48;;
37231;SDS011;23125;48.156;15.954;2023-06-10T12:53:24;8.68;;;7.78;;
37231;SDS011;23125;48.156;15.954;2023-06-10T12:55:54;9.85;;;7.40;;
37231;SDS011;23125;48.156;15.954;2023-06-10T12:58:20;9.60;;;7.90;;
37231;SDS011;23125;48.156;15.954;2023-06-10T13:00:47;9.32;;;8.32;;
37231;SDS011;23125;48.156;15.954;2023-06-10T13:03:14;9.48;;;7.88;;
37231;SDS011;23125;48.156;15.954;2023-06-10T13:05:40;9.30;;;8.35;;
37231;SDS011;23125;48.156;15.954;2023-06-10T13:08:07;8.68;;;7.65;;
37231;SDS011;23125;48.156;15.954;2023-06-10T13:10:37;9.95;;;8.68;;
37231;SDS011;23125;48.156;15.954;2023-06-10T13:13:03;9.77;;;8.00;;
37231;SDS011;23125;48.156;15.954;2023-06-10T13:15:33;9.38;;;8.38;;
37231;SDS011;23125;48.156;15.954;2023-06-10T13:18:05;9.18;;;7.95;;
37231;SDS011;23125;48.156;15.954;2023-06-10T13:20:30;8.50;;;7.63;;
37231;SDS011;23125;48.156;15.954;2023-06-10T13:22:56;6.25;;;5.65;;
37231;SDS011;23125;48.156;15.954;2023-06-10T13:25:22;5.90;;;5.30;;
37231;SDS011;23125;48.156;15.954;2023-06-10T13:27:49;4.93;;;4.53;;
37231;SDS011;23125;48.156;15.954;2023-06-10T13:30:15;4.30;;;3.70;;
37231;SDS011;23125;48.156;15.954;2023-06-10T13:32:41;5.05;;;4.40;;
37231;SDS011;23125;48.156;15.954;2023-06-10T13:35:07;4.40;;;4.00;;
37231;SDS011;23125;48.156;15.954;2023-06-10T13:37:33;4.80;;;4.15;;
37231;SDS011;23125;48.156;15.954;2023-06-10T13:40:00;4.70;;;4.13;;
37231;SDS011;23125;48.156;15.954;2023-06-10T13:42:27;4.40;;;4.00;;
37231;SDS011;23125;48.156;15.954;2023-06-10T13:44:54;4.45;;;4.05;;
37231;SDS011;23125;48.156;15.954;2023-06-10T13:47:22;4.40;;;4.00;;
37231;SDS011;23125;48.156;15.954;2023-06-10T13:49:47;5.07;;;4.57;;
37231;SDS011;23125;48.156;15.954;2023-06-10T13:52:13;6.45;;;5.75;;
37231;SDS011;23125;48.156;15.954;2023-06-10T13:54:39;6.78;;;6.10;;
37231;SDS011;23125;48.156;15.954;2023-06-10T13:57:05;7.28;;;6.53;;
37231;SDS011;23125;48.156;15.954;2023-06-10T13:59:31;6.50;;;5.90;;
37231;SDS011;23125;48.156;15.954;2023-06-10T14:01:57;7.35;;;6.38;;
37231;SDS011;23125;48.156;15.954;2023-06-10T14:04:23;8.00;;;7.13;;
37231;SDS011;23125;48.156;15.954;2023-06-10T14:06:49;9.20;;;7.18;;
37231;SDS011;23125;48.156;15.954;2023-06-10T14:09:15;8.70;;;7.65;;
37231;SDS011;23125;48.156;15.954;2023-06-10T14:11:41;7.88;;;7.03;;
37231;SDS011;23125;48.156;15.954;2023-06-10T14:14:07;8.40;;;7.40;;
37231;SDS011;23125;48.156;15.954;2023-06-10T14:16:33;7.90;;;6.82;;
37231;SDS011;23125;48.156;15.954;2023-06-10T14:18:59;7.95;;;7.13;;
37231;SDS011;23125;48.156;15.954;2023-06-10T14:21:25;7.72;;;6.53;;
37231;SDS011;23125;48.156;15.954;2023-06-10T14:23:51;7.18;;;6.47;;
37231;SDS011;23125;48.156;15.954;2023-06-10T14:26:19;8.20;;;6.68;;
37231;SDS011;23125;48.156;15.954;2023-06-10T14:28:47;7.43;;;6.78;;
37231;SDS011;23125;48.156;15.954;2023-06-10T14:31:14;10.45;;;8.10;;
37231;SDS011;23125;48.156;15.954;2023-06-10T14:33:41;9.60;;;7.57;;
37231;SDS011;23125;48.156;15.954;2023-06-10T14:36:09;8.60;;;7.70;;
37231;SDS011;23125;48.156;15.954;2023-06-10T14:38:35;9.38;;;8.38;;
37231;SDS011;23125;48.156;15.954;2023-06-10T14:41:01;8.98;;;7.40;;
37231;SDS011;23125;48.156;15.954;2023-06-10T14:43:27;8.77;;;7.30;;
37231;SDS011;23125;48.156;15.954;2023-06-10T14:45:53;10.75;;;8.07;;